createdAt,value
2022-07-29T00:01:44.533Z,61.40
2022-07-29T00:04:14.459Z,61.60
2022-07-29T00:06:44.049Z,61.80
2022-07-29T00:09:13.343Z,61.90
2022-07-29T00:11:43.083Z,62.10
2022-07-29T00:14:12.489Z,62.20
2022-07-29T00:16:41.904Z,62.40
2022-07-29T00:19:11.210Z,62.50
2022-07-29T00:21:41.918Z,62.70
2022-07-29T00:24:11.147Z,62.80
2022-07-29T00:26:40.366Z,62.90
2022-07-29T00:31:59.131Z,63.30
2022-07-29T00:34:46.816Z,63.50
2022-07-29T00:37:16.225Z,63.80
2022-07-29T00:39:45.476Z,63.60
2022-07-29T00:42:14.717Z,63.70
2022-07-29T00:44:44.169Z,63.70
2022-07-29T00:47:13.968Z,63.60
2022-07-29T00:49:43.297Z,63.60
2022-07-29T00:52:13.187Z,63.50
2022-07-29T00:54:46.338Z,63.40
2022-07-29T00:57:15.574Z,63.40
2022-07-29T00:59:44.782Z,63.40
2022-07-29T01:02:14.075Z,63.60
2022-07-29T01:04:43.538Z,63.70
2022-07-29T01:07:13.107Z,63.80
2022-07-29T01:09:46.911Z,63.90
2022-07-29T01:12:25.295Z,63.90
2022-07-29T01:14:56.663Z,64.00
2022-07-29T01:17:32.832Z,63.90
2022-07-29T01:20:12.815Z,64.00
2022-07-29T01:22:59.992Z,64.00
2022-07-29T01:26:00.253Z,64.00
2022-07-29T01:29:07.660Z,64.00
2022-07-29T01:31:59.225Z,64.20
2022-07-29T01:34:40.541Z,64.30
2022-07-29T01:37:19.926Z,64.30
2022-07-29T01:39:52.556Z,64.50
2022-07-29T01:42:35.154Z,64.70
2022-07-29T01:45:13.304Z,65.10
2022-07-29T01:48:03.096Z,65.30
2022-07-29T01:50:38.687Z,65.60
2022-07-29T01:53:11.616Z,65.80
2022-07-29T01:55:45.384Z,66.10
2022-07-29T01:58:18.582Z,66.20
2022-07-29T02:00:50.392Z,66.30
2022-07-29T02:03:19.982Z,66.30
2022-07-29T02:05:50.599Z,66.50
2022-07-29T02:08:21.117Z,66.60
2022-07-29T02:10:52.037Z,66.60
2022-07-29T02:13:24.682Z,66.60
2022-07-29T02:15:55.348Z,66.60
2022-07-29T02:18:28.734Z,66.70
2022-07-29T02:21:00.294Z,66.70
2022-07-29T02:23:33.186Z,66.90
2022-07-29T02:26:24.999Z,67.00
2022-07-29T02:28:56.892Z,67.20
2022-07-29T02:31:32.042Z,67.40
2022-07-29T02:34:06.029Z,67.70
2022-07-29T02:36:35.727Z,67.90
2022-07-29T02:39:06.219Z,68.30
2022-07-29T02:41:45.720Z,68.50
2022-07-29T02:44:24.953Z,68.70
2022-07-29T02:47:26.097Z,68.70
2022-07-29T02:50:03.713Z,68.90
2022-07-29T02:52:35.362Z,68.90
2022-07-29T02:55:13.413Z,68.90
2022-07-29T02:57:54.448Z,69.10
2022-07-29T03:00:38.363Z,69.20
2022-07-29T03:03:16.027Z,69.30
2022-07-29T03:05:45.479Z,69.50
2022-07-29T03:08:16.083Z,69.80
2022-07-29T03:10:46.705Z,70.00
2022-07-29T03:13:16.807Z,70.20
2022-07-29T03:15:47.115Z,70.30
2022-07-29T03:18:16.587Z,70.40
2022-07-29T03:20:45.964Z,70.50
2022-07-29T03:23:20.966Z,70.60
2022-07-29T03:25:54.397Z,70.70
2022-07-29T03:28:24.777Z,70.90
2022-07-29T03:30:56.428Z,71.00
2022-07-29T03:33:25.882Z,71.10
2022-07-29T03:35:55.083Z,71.20
2022-07-29T03:38:27.870Z,71.50
2022-07-29T03:41:08.479Z,71.70
2022-07-29T03:43:49.294Z,71.90
2022-07-29T03:46:22.166Z,72.00
2022-07-29T03:48:57.529Z,72.20
2022-07-29T03:51:33.229Z,72.10
2022-07-29T03:54:14.363Z,71.90
2022-07-29T03:56:48.523Z,71.90
2022-07-29T03:59:20.529Z,72.00
2022-07-29T04:01:51.234Z,72.50
2022-07-29T04:04:20.810Z,71.80
2022-07-29T04:06:50.021Z,71.80
2022-07-29T04:09:19.254Z,71.80
2022-07-29T04:11:57.106Z,71.80
2022-07-29T04:14:34.059Z,71.80
2022-07-29T04:17:05.198Z,71.90
2022-07-29T04:19:34.783Z,71.80
2022-07-29T04:22:04.103Z,71.60
2022-07-29T04:24:33.352Z,71.50
2022-07-29T04:27:02.623Z,71.30
2022-07-29T04:29:31.839Z,71.10
2022-07-29T04:32:01.137Z,70.90
2022-07-29T04:34:30.534Z,70.70
2022-07-29T04:36:59.733Z,70.50
2022-07-29T04:39:30.404Z,70.20
2022-07-29T04:41:59.875Z,70.00
2022-07-29T04:44:30.706Z,69.80
2022-07-29T04:47:09.747Z,69.50
2022-07-29T04:49:39.807Z,69.20
2022-07-29T04:52:08.990Z,68.90
2022-07-29T04:54:38.373Z,68.60
2022-07-29T04:57:07.525Z,68.30
2022-07-29T04:59:36.851Z,67.90
2022-07-29T05:02:06.206Z,67.60
2022-07-29T05:04:35.527Z,67.20
2022-07-29T05:07:04.763Z,66.90
2022-07-29T05:09:33.947Z,66.60
2022-07-29T05:12:03.280Z,66.40
2022-07-29T05:14:32.697Z,66.20
2022-07-29T05:17:01.997Z,66.00
2022-07-29T05:19:31.241Z,65.60
2022-07-29T05:22:01.096Z,65.20
2022-07-29T05:24:30.499Z,65.00
2022-07-29T05:26:59.706Z,64.70
2022-07-29T05:29:43.841Z,64.50
2022-07-29T05:32:14.839Z,64.10
2022-07-29T05:34:50.797Z,63.70
2022-07-29T05:37:21.250Z,63.50
2022-07-29T05:39:56.655Z,63.20
2022-07-29T05:42:27.172Z,62.90
2022-07-29T05:44:56.500Z,62.70
2022-07-29T05:47:25.744Z,62.30
2022-07-29T05:49:55.171Z,62.10
2022-07-29T05:52:35.450Z,62.00
2022-07-29T05:55:06.682Z,61.60
2022-07-29T05:57:35.921Z,61.30
2022-07-29T06:00:05.962Z,61.10
2022-07-29T06:02:41.846Z,60.70
2022-07-29T06:05:16.265Z,60.30
2022-07-29T06:07:50.669Z,60.00
2022-07-29T06:10:20.883Z,59.70
2022-07-29T06:12:53.602Z,59.40
2022-07-29T06:15:22.806Z,58.80
2022-07-29T06:18:00.524Z,58.50
2022-07-29T06:20:32.297Z,58.20
2022-07-29T06:23:02.424Z,57.70
2022-07-29T06:25:31.853Z,57.30
2022-07-29T06:28:01.347Z,57.00
2022-07-29T06:30:30.870Z,56.90
2022-07-29T06:33:01.397Z,56.70
2022-07-29T06:35:39.066Z,56.20
2022-07-29T06:38:30.768Z,56.00
2022-07-29T06:41:06.814Z,55.60
2022-07-29T06:43:51.931Z,55.20
2022-07-29T06:46:23.482Z,54.90
2022-07-29T06:48:53.663Z,54.60
2022-07-29T06:51:23.857Z,54.20
2022-07-29T06:54:00.373Z,53.80
2022-07-29T06:56:38.311Z,53.70
2022-07-29T06:59:11.486Z,53.40
2022-07-29T07:01:42.858Z,53.30
2022-07-29T07:04:13.161Z,53.10
2022-07-29T07:06:42.604Z,52.80
2022-07-29T07:09:11.796Z,52.60
2022-07-29T07:11:41.084Z,52.30
2022-07-29T07:14:10.397Z,51.90
2022-07-29T07:16:39.666Z,51.70
2022-07-29T07:19:08.982Z,51.30
2022-07-29T07:21:38.288Z,51.00
2022-07-29T07:24:07.693Z,50.80
2022-07-29T07:26:36.933Z,50.60
2022-07-29T07:29:06.284Z,50.40
2022-07-29T07:31:35.560Z,50.20
2022-07-29T07:34:05.143Z,50.00
2022-07-29T07:36:34.378Z,49.80
2022-07-29T07:39:04.594Z,49.50
2022-07-29T07:41:33.892Z,49.30
2022-07-29T07:44:03.289Z,49.20
2022-07-29T07:46:32.822Z,48.80
2022-07-29T07:49:02.071Z,48.60
2022-07-29T07:51:31.338Z,48.10
2022-07-29T07:54:01.844Z,47.90
2022-07-29T07:56:35.344Z,47.80
2022-07-29T07:59:04.898Z,47.50
2022-07-29T08:01:55.151Z,47.10
2022-07-29T08:04:27.929Z,46.80
2022-07-29T08:06:58.845Z,46.50
2022-07-29T08:09:30.546Z,46.30
2022-07-29T08:12:00.388Z,46.00
2022-07-29T08:14:30.945Z,45.30
2022-07-29T08:17:00.462Z,45.00
2022-07-29T08:19:29.839Z,44.60
2022-07-29T08:21:59.134Z,44.40
2022-07-29T08:24:46.799Z,44.00
2022-07-29T08:27:42.063Z,43.40
2022-07-29T08:30:05.823Z,43.20
2022-07-29T08:32:53.106Z,42.80
2022-07-29T08:35:24.489Z,42.40
2022-07-29T08:37:54.345Z,41.70
2022-07-29T08:40:31.828Z,41.60
2022-07-29T08:43:09.554Z,42.10
2022-07-29T08:45:48.113Z,41.40
2022-07-29T08:48:20.254Z,41.10
2022-07-29T08:50:53.578Z,40.90
2022-07-29T08:53:25.738Z,40.70
2022-07-29T08:55:56.101Z,40.50
2022-07-29T08:58:26.575Z,40.40
2022-07-29T09:00:57.916Z,40.30
2022-07-29T09:03:32.592Z,40.00
2022-07-29T09:06:03.142Z,39.80
2022-07-29T09:08:33.563Z,39.70
2022-07-29T09:11:05.342Z,39.40
2022-07-29T09:13:35.576Z,39.00
2022-07-29T09:16:09.551Z,38.40
2022-07-29T09:18:44.404Z,38.30
2022-07-29T09:21:34.025Z,38.20
2022-07-29T09:24:07.929Z,38.30
2022-07-29T09:26:43.429Z,38.20
2022-07-29T09:29:20.926Z,38.00
2022-07-29T09:31:53.245Z,37.80
2022-07-29T09:34:27.979Z,37.60
2022-07-29T09:36:57.798Z,37.50
2022-07-29T09:39:46.689Z,37.30
2022-07-29T09:42:28.936Z,37.20
2022-07-29T09:44:58.235Z,36.90
2022-07-29T09:47:43.156Z,36.50
2022-07-29T09:50:12.553Z,36.40
2022-07-29T09:52:50.016Z,36.00
2022-07-29T09:55:20.241Z,35.50
2022-07-29T09:57:49.517Z,35.10
2022-07-29T10:00:20.836Z,34.70
2022-07-29T10:02:50.575Z,34.20
2022-07-29T10:05:21.411Z,34.00
2022-07-29T10:07:57.479Z,33.40
2022-07-29T10:10:27.079Z,32.80
2022-07-29T10:13:01.841Z,32.30
2022-07-29T10:15:41.845Z,32.10
2022-07-29T10:18:15.571Z,31.70
2022-07-29T10:20:44.899Z,31.20
2022-07-29T10:23:15.019Z,30.30
2022-07-29T10:25:46.983Z,30.30
2022-07-29T10:28:16.920Z,30.50
2022-07-29T10:30:47.931Z,30.50
2022-07-29T10:33:47.660Z,30.40
2022-07-29T10:36:45.028Z,30.70
2022-07-29T10:39:49.857Z,30.30
2022-07-29T10:45:18.690Z,30.40
2022-07-29T10:47:47.993Z,30.70
2022-07-29T10:50:17.522Z,30.90
2022-07-29T10:52:57.650Z,31.10
2022-07-29T10:55:43.145Z,31.20
2022-07-29T10:58:14.663Z,31.40
2022-07-29T11:00:45.615Z,31.50
2022-07-29T11:03:50.410Z,31.60
2022-07-29T11:06:26.758Z,31.80
2022-07-29T11:09:20.104Z,31.90
2022-07-29T11:11:58.167Z,32.10
2022-07-29T11:15:00.042Z,32.10
2022-07-29T11:17:47.154Z,32.30
2022-07-29T11:20:49.808Z,32.60
2022-07-29T11:23:36.713Z,33.10
2022-07-29T11:26:22.950Z,34.10
2022-07-29T11:29:17.727Z,35.50
2022-07-29T11:31:50.906Z,38.80
2022-07-29T11:34:34.807Z,47.00
2022-07-29T11:37:10.331Z,56.60
2022-07-29T11:40:08.442Z,62.70
2022-07-29T11:42:44.572Z,65.20
2022-07-29T11:45:42.734Z,66.70
2022-07-29T11:48:29.542Z,68.00
2022-07-29T11:50:58.423Z,68.90
2022-07-29T11:53:28.976Z,70.10
2022-07-29T11:56:02.780Z,70.70
2022-07-29T11:58:32.940Z,70.50
2022-07-29T12:04:03.968Z,70.00
2022-07-29T12:06:36.135Z,69.90
2022-07-29T12:07:03.869Z,70.20
2022-07-29T12:09:14.370Z,70.00
2022-07-29T12:11:47.367Z,70.30
2022-07-29T12:14:48.750Z,70.40
2022-07-29T12:17:30.856Z,70.50
2022-07-29T12:20:05.095Z,70.80
2022-07-29T12:22:38.314Z,72.70
2022-07-29T12:25:32.859Z,75.70
2022-07-29T12:28:02.015Z,77.40
2022-07-29T12:30:52.016Z,79.10
2022-07-29T12:33:27.403Z,79.00
2022-07-29T12:36:14.180Z,78.60
2022-07-29T12:38:47.325Z,78.90
2022-07-29T12:41:16.636Z,78.80
2022-07-29T12:43:55.756Z,78.80
2022-07-29T12:46:25.048Z,78.50
2022-07-29T12:48:59.690Z,78.50
2022-07-29T12:51:40.592Z,78.60
2022-07-29T12:54:18.845Z,78.70
2022-07-29T12:57:01.250Z,77.70
2022-07-29T12:59:30.583Z,75.20
2022-07-29T13:02:01.107Z,72.90
2022-07-29T13:04:36.628Z,64.70
2022-07-29T13:07:09.223Z,56.30
2022-07-29T13:09:44.539Z,49.20
2022-07-29T13:12:15.471Z,46.80
2022-07-29T13:14:47.735Z,47.70
2022-07-29T13:17:18.469Z,47.80
2022-07-29T13:19:48.845Z,49.20
2022-07-29T13:22:20.428Z,44.50
2022-07-29T13:25:02.558Z,42.00
2022-07-29T13:27:39.577Z,42.90
2022-07-29T13:30:10.415Z,47.40
2022-07-29T13:32:39.850Z,50.80
2022-07-29T13:35:09.758Z,52.80
2022-07-29T13:37:41.600Z,53.10
2022-07-29T13:40:11.658Z,52.60
2022-07-29T13:42:41.973Z,47.80
2022-07-29T13:45:11.952Z,46.60
2022-07-29T13:47:45.980Z,47.00
2022-07-29T13:50:18.589Z,48.20
2022-07-29T13:52:49.464Z,44.90
2022-07-29T13:55:19.004Z,38.20
2022-07-29T13:57:48.689Z,35.00
2022-07-29T14:00:18.243Z,38.20
2022-07-29T14:02:47.571Z,41.90
2022-07-29T14:05:16.854Z,44.50
2022-07-29T14:07:46.053Z,44.40
2022-07-29T14:10:19.948Z,45.50
2022-07-29T14:12:49.424Z,46.90
2022-07-29T14:15:18.725Z,47.90
2022-07-29T14:17:48.046Z,48.20
2022-07-29T14:20:17.380Z,45.50
2022-07-29T14:22:46.586Z,41.10
2022-07-29T14:25:16.172Z,42.10
2022-07-29T14:27:45.764Z,43.40
2022-07-29T14:30:15.644Z,44.60
2022-07-29T14:32:44.868Z,39.90
2022-07-29T14:35:14.140Z,40.80
2022-07-29T14:37:43.457Z,43.30
2022-07-29T14:40:12.776Z,43.90
2022-07-29T14:42:42.308Z,38.20
2022-07-29T14:45:11.692Z,34.40
2022-07-29T14:47:41.068Z,35.40
2022-07-29T14:50:11.543Z,37.30
2022-07-29T14:52:41.494Z,39.30
2022-07-29T14:55:19.594Z,40.40
2022-07-29T14:57:50.992Z,40.80
2022-07-29T15:00:21.774Z,40.90
2022-07-29T15:03:04.706Z,41.30
2022-07-29T15:05:34.131Z,41.70
2022-07-29T15:08:03.912Z,42.20
2022-07-29T15:10:33.919Z,42.80
2022-07-29T15:13:03.260Z,43.10
2022-07-29T15:15:32.476Z,43.70
2022-07-29T15:18:01.648Z,44.40
2022-07-29T15:20:31.025Z,45.00
2022-07-29T15:23:00.250Z,45.50
2022-07-29T15:25:29.588Z,46.00
2022-07-29T15:28:01.705Z,47.10
2022-07-29T15:30:34.062Z,47.10
2022-07-29T15:33:04.452Z,47.60
2022-07-29T15:35:40.130Z,48.00
2022-07-29T15:38:09.964Z,48.50
2022-07-29T15:40:42.238Z,49.90
2022-07-29T15:43:11.487Z,50.10
2022-07-29T15:46:03.696Z,50.10
2022-07-29T15:48:33.033Z,50.40
2022-07-29T15:51:02.292Z,49.80
2022-07-29T15:53:31.519Z,49.90
2022-07-29T15:56:02.335Z,49.50
2022-07-29T15:58:31.487Z,44.40
2022-07-29T16:01:00.723Z,43.00
2022-07-29T16:03:29.997Z,40.40
2022-07-29T16:05:59.444Z,42.20
2022-07-29T16:08:28.604Z,45.10
2022-07-29T16:10:57.839Z,47.30
2022-07-29T16:13:26.986Z,48.80
2022-07-29T16:16:02.120Z,50.00
2022-07-29T16:18:32.642Z,50.80
2022-07-29T16:21:01.915Z,51.30
2022-07-29T16:23:31.149Z,51.90
2022-07-29T16:26:01.385Z,52.60
2022-07-29T16:28:30.965Z,53.10
2022-07-29T16:31:00.199Z,53.30
2022-07-29T16:33:53.562Z,53.40
2022-07-29T16:36:19.721Z,53.90
2022-07-29T16:38:49.041Z,54.80
2022-07-29T16:41:18.280Z,55.40
2022-07-29T16:43:47.667Z,55.60
2022-07-29T16:46:19.146Z,55.90
2022-07-29T16:48:49.748Z,56.10
2022-07-29T16:51:19.048Z,56.50
2022-07-29T16:53:50.287Z,56.60
2022-07-29T16:56:19.719Z,56.90
2022-07-29T16:58:48.955Z,57.20
2022-07-29T17:01:18.321Z,57.40
2022-07-29T17:04:06.036Z,57.70
2022-07-29T17:06:40.543Z,58.00
2022-07-29T17:09:11.437Z,58.30
2022-07-29T17:11:53.654Z,58.60
2022-07-29T17:14:26.020Z,58.80
2022-07-29T17:17:01.388Z,58.90
2022-07-29T17:19:34.220Z,59.00
2022-07-29T17:22:18.937Z,59.20
2022-07-29T17:24:48.733Z,59.30
2022-07-29T17:27:18.559Z,59.70
2022-07-29T17:29:47.959Z,60.10
2022-07-29T17:32:17.454Z,60.60
2022-07-29T17:34:46.619Z,60.90
2022-07-29T17:37:15.831Z,60.90
2022-07-29T17:39:45.067Z,61.00
2022-07-29T17:42:14.706Z,61.00
2022-07-29T17:44:43.893Z,60.90
2022-07-29T17:47:15.966Z,60.10
2022-07-29T17:49:45.996Z,59.20
2022-07-29T17:52:16.047Z,58.40
2022-07-29T17:54:45.273Z,57.90
2022-07-29T17:57:14.466Z,57.60
2022-07-29T17:59:43.830Z,57.70
2022-07-29T18:02:14.476Z,57.80
2022-07-29T18:04:44.062Z,58.00
2022-07-29T18:07:13.514Z,58.30
2022-07-29T18:09:42.714Z,58.50
2022-07-29T18:12:11.938Z,58.60
2022-07-29T18:14:41.160Z,58.80
2022-07-29T18:17:10.535Z,58.60
2022-07-29T18:19:39.764Z,58.30
2022-07-29T18:22:10.233Z,58.20
2022-07-29T18:24:39.427Z,58.10
2022-07-29T18:27:08.632Z,57.80
2022-07-29T18:29:37.908Z,57.70
2022-07-29T18:32:07.524Z,57.50
2022-07-29T18:34:36.696Z,57.40
2022-07-29T18:37:05.924Z,57.40
2022-07-29T18:39:35.122Z,57.50
2022-07-29T18:42:04.613Z,57.80
2022-07-29T18:44:34.421Z,58.50
2022-07-29T18:47:12.951Z,59.30
2022-07-29T18:49:42.397Z,59.80
2022-07-29T18:52:12.523Z,60.40
2022-07-29T18:54:42.109Z,61.10
2022-07-29T18:57:54.703Z,62.00
2022-07-29T19:00:00.627Z,62.80
2022-07-29T19:02:29.927Z,63.30
2022-07-29T19:04:59.175Z,64.00
2022-07-29T19:07:29.920Z,64.30
2022-07-29T19:09:59.258Z,64.70
2022-07-29T19:12:28.672Z,64.90
2022-07-29T19:14:57.912Z,65.00
2022-07-29T19:17:27.071Z,65.30
2022-07-29T19:19:56.323Z,65.40
2022-07-29T19:22:25.552Z,65.50
2022-07-29T19:24:54.760Z,65.70
2022-07-29T19:27:24.070Z,66.30
2022-07-29T19:29:55.814Z,66.80
2022-07-29T19:32:28.508Z,66.90
2022-07-29T19:35:15.866Z,67.20
2022-07-29T19:37:45.138Z,67.30
2022-07-29T19:40:16.229Z,67.70
2022-07-29T19:42:45.610Z,68.50
2022-07-29T19:45:14.881Z,69.10
2022-07-29T19:47:44.142Z,69.60
2022-07-29T19:50:15.679Z,70.00
2022-07-29T19:52:47.108Z,70.20
2022-07-29T19:55:16.520Z,70.30
2022-07-29T19:57:47.956Z,70.40
2022-07-29T20:00:17.652Z,70.40
2022-07-29T20:02:50.271Z,70.50
2022-07-29T20:05:19.470Z,70.60
2022-07-29T20:07:48.801Z,70.40
2022-07-29T20:10:17.981Z,70.30
2022-07-29T20:12:47.154Z,70.30
2022-07-29T20:15:20.498Z,70.40
2022-07-29T20:17:51.850Z,70.50
2022-07-29T20:20:25.390Z,70.50
2022-07-29T20:22:54.600Z,70.60
2022-07-29T20:25:24.234Z,70.50
2022-07-29T20:27:54.376Z,70.50
2022-07-29T20:30:23.910Z,71.20
2022-07-29T20:32:53.119Z,70.70
2022-07-29T20:35:23.948Z,70.80
2022-07-29T20:37:56.445Z,71.60
2022-07-29T20:40:27.078Z,71.90
2022-07-29T20:42:56.451Z,72.00
2022-07-29T20:45:25.886Z,72.10
2022-07-29T20:47:55.182Z,72.20
2022-07-29T20:50:24.844Z,72.30
2022-07-29T20:52:54.042Z,72.40
2022-07-29T20:55:23.420Z,72.60
2022-07-29T20:57:52.639Z,72.80
2022-07-29T21:00:21.996Z,73.10
2022-07-29T21:02:51.724Z,73.30
2022-07-29T21:05:21.070Z,73.60
2022-07-29T21:07:51.274Z,73.70
2022-07-29T21:10:22.604Z,73.90
2022-07-29T21:12:51.835Z,74.10
2022-07-29T21:15:21.964Z,74.30
2022-07-29T21:17:59.467Z,74.50
2022-07-29T21:20:29.696Z,74.90
2022-07-29T21:22:59.009Z,75.30
2022-07-29T21:25:29.757Z,75.80
2022-07-29T21:28:17.365Z,76.00
2022-07-29T21:30:46.674Z,76.20
2022-07-29T21:33:15.898Z,76.30
2022-07-29T21:36:06.949Z,76.40
2022-07-29T21:38:35.443Z,76.40
2022-07-29T21:41:05.543Z,76.50
2022-07-29T21:43:34.822Z,76.60
2022-07-29T21:46:04.129Z,76.70
2022-07-29T21:48:33.434Z,76.80
2022-07-29T21:51:02.766Z,76.80
2022-07-29T21:53:32.121Z,76.80
2022-07-29T21:56:01.388Z,76.90
2022-07-29T21:58:30.557Z,77.00
2022-07-29T22:01:00.411Z,77.00
2022-07-29T22:03:29.744Z,77.00
2022-07-29T22:05:59.270Z,77.50
2022-07-29T22:08:28.590Z,76.90
2022-07-29T22:10:57.795Z,76.80
2022-07-29T22:13:27.039Z,76.90
2022-07-29T22:15:56.310Z,76.90
2022-07-29T22:18:25.570Z,76.90
2022-07-29T22:20:55.715Z,76.90
2022-07-29T22:23:25.129Z,76.80
2022-07-29T22:25:54.376Z,76.80
2022-07-29T22:28:23.575Z,76.80
2022-07-29T22:30:52.892Z,77.10
2022-07-29T22:33:22.226Z,77.80
2022-07-29T22:35:51.424Z,78.20
2022-07-29T22:38:20.708Z,78.20
2022-07-29T22:40:51.307Z,78.30
2022-07-29T22:43:20.609Z,78.30
2022-07-29T22:45:49.835Z,78.30
2022-07-29T22:48:19.190Z,78.30
2022-07-29T22:50:48.462Z,78.30
2022-07-29T22:53:17.713Z,78.30
2022-07-29T22:55:47.839Z,78.50
2022-07-29T22:58:17.067Z,78.60
2022-07-29T23:00:46.242Z,78.80
2022-07-29T23:03:15.493Z,79.10
2022-07-29T23:05:44.741Z,79.20
2022-07-29T23:08:13.907Z,79.50
2022-07-29T23:10:43.237Z,79.80
2022-07-29T23:13:12.578Z,80.00
2022-07-29T23:15:42.041Z,80.20
2022-07-29T23:18:11.285Z,80.50
2022-07-29T23:20:40.885Z,80.70
2022-07-29T23:23:10.429Z,80.90
2022-07-29T23:25:39.636Z,81.00
2022-07-29T23:28:13.062Z,81.20
2022-07-29T23:30:43.095Z,81.40
2022-07-29T23:33:12.409Z,81.60
2022-07-29T23:35:41.694Z,81.70
2022-07-29T23:38:10.903Z,81.80
2022-07-29T23:40:40.147Z,81.90
2022-07-29T23:43:09.357Z,81.90
2022-07-29T23:45:42.638Z,82.10
2022-07-29T23:48:14.697Z,82.10
2022-07-29T23:50:43.899Z,82.30
2022-07-29T23:53:13.086Z,82.50
2022-07-29T23:55:42.312Z,82.60
2022-07-29T23:58:11.500Z,82.70
